sensor_id;sensor_type;location;lat;lon;timestamp;temperature;humidity
54832;DHT22;40730;53.068;6.572;2023-09-08T00:01:37;18.40;99.90
54832;DHT22;40730;53.068;6.572;2023-09-08T00:04:03;18.40;99.90
54832;DHT22;40730;53.068;6.572;2023-09-08T00:06:29;18.30;99.90
54832;DHT22;40730;53.068;6.572;2023-09-08T00:08:55;18.30;99.90
54832;DHT22;40730;53.068;6.572;2023-09-08T00:11:20;18.40;99.90
54832;DHT22;40730;53.068;6.572;2023-09-08T00:13:46;18.30;99.90
54832;DHT22;40730;53.068;6.572;2023-09-08T00:16:12;18.20;99.90
54832;DHT22;40730;53.068;6.572;2023-09-08T00:18:37;18.10;99.90
54832;DHT22;40730;53.068;6.572;2023-09-08T00:21:03;18.10;99.90
54832;DHT22;40730;53.068;6.572;2023-09-08T00:23:28;18.10;99.90
54832;DHT22;40730;53.068;6.572;2023-09-08T00:25:54;18.10;99.90
54832;DHT22;40730;53.068;6.572;2023-09-08T00:28:20;18.10;99.90
54832;DHT22;40730;53.068;6.572;2023-09-08T00:30:45;18.10;99.90
54832;DHT22;40730;53.068;6.572;2023-09-08T00:33:11;18.10;99.90
54832;DHT22;40730;53.068;6.572;2023-09-08T00:35:39;18.10;99.90
54832;DHT22;40730;53.068;6.572;2023-09-08T00:38:04;18.10;99.90
54832;DHT22;40730;53.068;6.572;2023-09-08T00:40:30;18.10;99.90
54832;DHT22;40730;53.068;6.572;2023-09-08T00:42:56;18.10;99.90
54832;DHT22;40730;53.068;6.572;2023-09-08T00:45:21;18.10;99.90
54832;DHT22;40730;53.068;6.572;2023-09-08T00:47:48;18.10;99.90
54832;DHT22;40730;53.068;6.572;2023-09-08T00:50:13;18.00;99.90
54832;DHT22;40730;53.068;6.572;2023-09-08T00:52:39;18.10;99.90
54832;DHT22;40730;53.068;6.572;2023-09-08T00:55:05;18.00;99.90
54832;DHT22;40730;53.068;6.572;2023-09-08T00:57:31;18.00;99.90
54832;DHT22;40730;53.068;6.572;2023-09-08T00:59:57;18.00;99.90
54832;DHT22;40730;53.068;6.572;2023-09-08T01:02:23;17.90;99.90
54832;DHT22;40730;53.068;6.572;2023-09-08T01:04:49;18.00;99.90
54832;DHT22;40730;53.068;6.572;2023-09-08T01:07:15;17.90;99.90
54832;DHT22;40730;53.068;6.572;2023-09-08T01:09:41;17.90;99.90
54832;DHT22;40730;53.068;6.572;2023-09-08T01:12:07;18.00;99.90
54832;DHT22;40730;53.068;6.572;2023-09-08T01:14:33;17.80;99.90
54832;DHT22;40730;53.068;6.572;2023-09-08T01:16:59;17.80;99.90
54832;DHT22;40730;53.068;6.572;2023-09-08T01:19:25;17.80;99.90
54832;DHT22;40730;53.068;6.572;2023-09-08T01:27:04;17.70;99.90
54832;DHT22;40730;53.068;6.572;2023-09-08T01:29:32;17.60;99.90
54832;DHT22;40730;53.068;6.572;2023-09-08T01:31:58;17.50;99.90
54832;DHT22;40730;53.068;6.572;2023-09-08T01:34:24;17.50;99.90
54832;DHT22;40730;53.068;6.572;2023-09-08T01:36:49;17.50;99.90
54832;DHT22;40730;53.068;6.572;2023-09-08T01:39:15;17.40;99.90
54832;DHT22;40730;53.068;6.572;2023-09-08T01:41:40;17.40;99.90
54832;DHT22;40730;53.068;6.572;2023-09-08T01:44:06;17.40;99.90
54832;DHT22;40730;53.068;6.572;2023-09-08T01:46:35;17.30;99.90
54832;DHT22;40730;53.068;6.572;2023-09-08T01:49:01;17.30;99.90
54832;DHT22;40730;53.068;6.572;2023-09-08T01:51:26;17.20;99.90
54832;DHT22;40730;53.068;6.572;2023-09-08T01:53:52;17.20;99.90
54832;DHT22;40730;53.068;6.572;2023-09-08T01:56:18;17.20;99.90
54832;DHT22;40730;53.068;6.572;2023-09-08T01:58:43;17.10;99.90
54832;DHT22;40730;53.068;6.572;2023-09-08T02:01:09;17.10;99.90
54832;DHT22;40730;53.068;6.572;2023-09-08T02:03:34;17.10;99.90
54832;DHT22;40730;53.068;6.572;2023-09-08T02:06:00;17.00;99.90
54832;DHT22;40730;53.068;6.572;2023-09-08T02:08:26;17.00;99.90
54832;DHT22;40730;53.068;6.572;2023-09-08T02:10:51;16.90;99.90
54832;DHT22;40730;53.068;6.572;2023-09-08T02:13:17;16.90;99.90
54832;DHT22;40730;53.068;6.572;2023-09-08T02:15:42;16.90;99.90
54832;DHT22;40730;53.068;6.572;2023-09-08T02:18:08;16.90;99.90
54832;DHT22;40730;53.068;6.572;2023-09-08T02:20:34;16.80;99.90
54832;DHT22;40730;53.068;6.572;2023-09-08T02:23:05;16.80;99.90
54832;DHT22;40730;53.068;6.572;2023-09-08T02:25:30;16.80;99.90
54832;DHT22;40730;53.068;6.572;2023-09-08T02:27:56;16.80;99.90
54832;DHT22;40730;53.068;6.572;2023-09-08T02:30:22;16.70;99.90
54832;DHT22;40730;53.068;6.572;2023-09-08T02:32:47;16.80;99.90
54832;DHT22;40730;53.068;6.572;2023-09-08T02:35:13;16.80;99.90
54832;DHT22;40730;53.068;6.572;2023-09-08T02:37:39;16.70;99.90
54832;DHT22;40730;53.068;6.572;2023-09-08T02:40:06;16.60;99.90
54832;DHT22;40730;53.068;6.572;2023-09-08T02:42:32;16.60;99.90
54832;DHT22;40730;53.068;6.572;2023-09-08T02:44:57;16.60;99.90
54832;DHT22;40730;53.068;6.572;2023-09-08T02:47:23;16.50;99.90
54832;DHT22;40730;53.068;6.572;2023-09-08T02:49:49;16.50;99.90
54832;DHT22;40730;53.068;6.572;2023-09-08T02:52:14;16.50;99.90
54832;DHT22;40730;53.068;6.572;2023-09-08T02:54:40;16.50;99.90
54832;DHT22;40730;53.068;6.572;2023-09-08T02:57:06;16.40;99.90
54832;DHT22;40730;53.068;6.572;2023-09-08T02:59:32;16.40;99.90
54832;DHT22;40730;53.068;6.572;2023-09-08T03:01:59;16.40;99.90
54832;DHT22;40730;53.068;6.572;2023-09-08T03:04:25;16.30;99.90
54832;DHT22;40730;53.068;6.572;2023-09-08T03:06:50;16.50;99.90
54832;DHT22;40730;53.068;6.572;2023-09-08T03:09:16;16.40;99.90
54832;DHT22;40730;53.068;6.572;2023-09-08T03:11:41;16.30;99.90
54832;DHT22;40730;53.068;6.572;2023-09-08T03:14:07;16.30;99.90
54832;DHT22;40730;53.068;6.572;2023-09-08T03:16:32;16.30;99.90
54832;DHT22;40730;53.068;6.572;2023-09-08T03:18:58;16.30;99.90
54832;DHT22;40730;53.068;6.572;2023-09-08T03:21:24;16.30;99.90
54832;DHT22;40730;53.068;6.572;2023-09-08T03:23:50;16.30;99.90
54832;DHT22;40730;53.068;6.572;2023-09-08T03:26:15;16.40;99.90
54832;DHT22;40730;53.068;6.572;2023-09-08T03:28:42;16.50;99.90
54832;DHT22;40730;53.068;6.572;2023-09-08T03:31:08;16.30;99.90
54832;DHT22;40730;53.068;6.572;2023-09-08T03:33:34;16.30;99.90
54832;DHT22;40730;53.068;6.572;2023-09-08T03:36:00;16.30;99.90
54832;DHT22;40730;53.068;6.572;2023-09-08T03:38:26;16.30;99.90
54832;DHT22;40730;53.068;6.572;2023-09-08T03:40:52;16.20;99.90
54832;DHT22;40730;53.068;6.572;2023-09-08T03:43:17;16.20;99.90
54832;DHT22;40730;53.068;6.572;2023-09-08T03:45:43;16.20;99.90
54832;DHT22;40730;53.068;6.572;2023-09-08T03:48:09;16.10;99.90
54832;DHT22;40730;53.068;6.572;2023-09-08T03:50:35;16.10;99.90
54832;DHT22;40730;53.068;6.572;2023-09-08T03:53:01;16.10;99.90
54832;DHT22;40730;53.068;6.572;2023-09-08T03:55:26;16.10;99.90
54832;DHT22;40730;53.068;6.572;2023-09-08T03:57:52;16.10;99.90
54832;DHT22;40730;53.068;6.572;2023-09-08T04:00:18;16.10;99.90
54832;DHT22;40730;53.068;6.572;2023-09-08T04:02:47;16.10;99.90
54832;DHT22;40730;53.068;6.572;2023-09-08T04:05:13;16.00;99.90
54832;DHT22;40730;53.068;6.572;2023-09-08T04:07:38;16.00;99.90
54832;DHT22;40730;53.068;6.572;2023-09-08T04:10:04;16.00;99.90
54832;DHT22;40730;53.068;6.572;2023-09-08T04:12:30;16.00;99.90
54832;DHT22;40730;53.068;6.572;2023-09-08T04:14:56;16.00;99.90
54832;DHT22;40730;53.068;6.572;2023-09-08T04:17:21;15.90;99.90
54832;DHT22;40730;53.068;6.572;2023-09-08T04:19:47;15.90;99.90
54832;DHT22;40730;53.068;6.572;2023-09-08T04:22:13;16.00;99.90
54832;DHT22;40730;53.068;6.572;2023-09-08T04:24:38;15.90;99.90
54832;DHT22;40730;53.068;6.572;2023-09-08T04:27:04;15.90;99.90
54832;DHT22;40730;53.068;6.572;2023-09-08T04:29:30;15.90;99.90
54832;DHT22;40730;53.068;6.572;2023-09-08T04:31:55;15.90;99.90
54832;DHT22;40730;53.068;6.572;2023-09-08T04:34:21;15.80;99.90
54832;DHT22;40730;53.068;6.572;2023-09-08T04:36:47;15.80;99.90
54832;DHT22;40730;53.068;6.572;2023-09-08T04:39:12;15.80;99.90
54832;DHT22;40730;53.068;6.572;2023-09-08T04:41:40;15.80;99.90
54832;DHT22;40730;53.068;6.572;2023-09-08T04:44:06;15.80;99.90
54832;DHT22;40730;53.068;6.572;2023-09-08T04:46:31;15.80;99.90
54832;DHT22;40730;53.068;6.572;2023-09-08T04:48:57;15.70;99.90
54832;DHT22;40730;53.068;6.572;2023-09-08T04:51:23;15.70;99.90
54832;DHT22;40730;53.068;6.572;2023-09-08T04:53:48;15.70;99.90
54832;DHT22;40730;53.068;6.572;2023-09-08T04:56:14;15.80;99.90
54832;DHT22;40730;53.068;6.572;2023-09-08T04:58:39;15.70;99.90
54832;DHT22;40730;53.068;6.572;2023-09-08T05:01:05;15.70;99.90
54832;DHT22;40730;53.068;6.572;2023-09-08T05:03:31;15.80;99.90
54832;DHT22;40730;53.068;6.572;2023-09-08T05:05:57;15.60;99.90
54832;DHT22;40730;53.068;6.572;2023-09-08T05:08:22;15.60;99.90
54832;DHT22;40730;53.068;6.572;2023-09-08T05:10:48;15.60;99.90
54832;DHT22;40730;53.068;6.572;2023-09-08T05:15:39;15.60;99.90
54832;DHT22;40730;53.068;6.572;2023-09-08T05:18:07;15.60;99.90
54832;DHT22;40730;53.068;6.572;2023-09-08T05:20:33;15.60;99.90
54832;DHT22;40730;53.068;6.572;2023-09-08T05:22:59;15.60;99.90
54832;DHT22;40730;53.068;6.572;2023-09-08T05:25:24;15.70;99.90
54832;DHT22;40730;53.068;6.572;2023-09-08T05:27:50;15.70;99.90
54832;DHT22;40730;53.068;6.572;2023-09-08T05:30:15;15.70;99.90
54832;DHT22;40730;53.068;6.572;2023-09-08T05:32:41;15.70;99.90
54832;DHT22;40730;53.068;6.572;2023-09-08T05:35:07;15.70;99.90
54832;DHT22;40730;53.068;6.572;2023-09-08T05:37:32;15.80;99.90
54832;DHT22;40730;53.068;6.572;2023-09-08T05:39:58;15.80;99.90
54832;DHT22;40730;53.068;6.572;2023-09-08T05:42:23;15.90;99.90
54832;DHT22;40730;53.068;6.572;2023-09-08T05:44:49;16.00;99.90
54832;DHT22;40730;53.068;6.572;2023-09-08T05:47:15;16.00;99.90
54832;DHT22;40730;53.068;6.572;2023-09-08T05:49:41;16.00;99.90
54832;DHT22;40730;53.068;6.572;2023-09-08T05:52:06;16.00;99.90
54832;DHT22;40730;53.068;6.572;2023-09-08T05:54:32;16.10;99.90
54832;DHT22;40730;53.068;6.572;2023-09-08T05:56:57;16.20;99.90
54832;DHT22;40730;53.068;6.572;2023-09-08T05:59:23;16.20;99.90
54832;DHT22;40730;53.068;6.572;2023-09-08T06:01:49;16.30;99.90
54832;DHT22;40730;53.068;6.572;2023-09-08T06:04:14;16.40;99.90
54832;DHT22;40730;53.068;6.572;2023-09-08T06:06:40;16.40;99.90
54832;DHT22;40730;53.068;6.572;2023-09-08T06:09:05;16.50;99.90
54832;DHT22;40730;53.068;6.572;2023-09-08T06:11:33;16.60;99.90
54832;DHT22;40730;53.068;6.572;2023-09-08T06:13:59;16.70;99.90
54832;DHT22;40730;53.068;6.572;2023-09-08T06:16:25;16.90;99.90
54832;DHT22;40730;53.068;6.572;2023-09-08T06:18:51;17.00;99.90
54832;DHT22;40730;53.068;6.572;2023-09-08T06:21:16;17.20;99.90
54832;DHT22;40730;53.068;6.572;2023-09-08T06:23:42;17.30;99.90
54832;DHT22;40730;53.068;6.572;2023-09-08T06:26:08;17.50;99.90
54832;DHT22;40730;53.068;6.572;2023-09-08T06:28:33;17.70;99.90
54832;DHT22;40730;53.068;6.572;2023-09-08T06:30:59;17.90;99.90
54832;DHT22;40730;53.068;6.572;2023-09-08T06:33:25;18.00;99.90
54832;DHT22;40730;53.068;6.572;2023-09-08T06:35:51;18.20;99.90
54832;DHT22;40730;53.068;6.572;2023-09-08T06:38:16;18.30;99.90
54832;DHT22;40730;53.068;6.572;2023-09-08T06:40:42;18.50;99.90
54832;DHT22;40730;53.068;6.572;2023-09-08T06:43:07;18.70;99.90
54832;DHT22;40730;53.068;6.572;2023-09-08T06:45:33;18.80;99.90
54832;DHT22;40730;53.068;6.572;2023-09-08T06:47:59;18.90;99.90
54832;DHT22;40730;53.068;6.572;2023-09-08T06:50:25;19.10;99.90
54832;DHT22;40730;53.068;6.572;2023-09-08T06:52:52;19.40;99.90
54832;DHT22;40730;53.068;6.572;2023-09-08T06:55:18;19.60;99.90
54832;DHT22;40730;53.068;6.572;2023-09-08T06:57:45;19.80;99.90
54832;DHT22;40730;53.068;6.572;2023-09-08T07:00:11;20.00;99.90
54832;DHT22;40730;53.068;6.572;2023-09-08T07:02:38;20.20;99.90
54832;DHT22;40730;53.068;6.572;2023-09-08T07:05:04;20.40;99.90
54832;DHT22;40730;53.068;6.572;2023-09-08T07:07:33;20.50;99.90
54832;DHT22;40730;53.068;6.572;2023-09-08T07:10:00;20.60;99.90
54832;DHT22;40730;53.068;6.572;2023-09-08T07:12:25;20.80;99.90
54832;DHT22;40730;53.068;6.572;2023-09-08T07:14:51;20.90;99.90
54832;DHT22;40730;53.068;6.572;2023-09-08T07:17:16;21.10;99.90
54832;DHT22;40730;53.068;6.572;2023-09-08T07:19:42;21.20;99.90
54832;DHT22;40730;53.068;6.572;2023-09-08T07:22:08;21.40;99.90
54832;DHT22;40730;53.068;6.572;2023-09-08T07:24:33;21.40;99.90
54832;DHT22;40730;53.068;6.572;2023-09-08T07:27:00;21.60;99.90
54832;DHT22;40730;53.068;6.572;2023-09-08T07:29:26;21.70;99.90
54832;DHT22;40730;53.068;6.572;2023-09-08T07:31:51;21.90;99.90
54832;DHT22;40730;53.068;6.572;2023-09-08T07:34:17;22.10;99.90
54832;DHT22;40730;53.068;6.572;2023-09-08T07:36:43;22.40;99.90
54832;DHT22;40730;53.068;6.572;2023-09-08T07:39:08;22.50;99.90
54832;DHT22;40730;53.068;6.572;2023-09-08T07:41:34;22.70;99.90
54832;DHT22;40730;53.068;6.572;2023-09-08T07:44:00;22.90;99.90
54832;DHT22;40730;53.068;6.572;2023-09-08T07:46:26;23.00;99.90
54832;DHT22;40730;53.068;6.572;2023-09-08T07:48:52;23.20;99.90
54832;DHT22;40730;53.068;6.572;2023-09-08T07:51:17;23.40;99.90
54832;DHT22;40730;53.068;6.572;2023-09-08T07:53:43;23.60;99.90
54832;DHT22;40730;53.068;6.572;2023-09-08T07:56:09;23.70;99.90
54832;DHT22;40730;53.068;6.572;2023-09-08T07:58:36;23.70;99.90
54832;DHT22;40730;53.068;6.572;2023-09-08T08:01:02;23.70;99.90
54832;DHT22;40730;53.068;6.572;2023-09-08T08:03:27;23.80;99.90
54832;DHT22;40730;53.068;6.572;2023-09-08T08:05:53;23.90;99.90
54832;DHT22;40730;53.068;6.572;2023-09-08T08:08:18;24.10;99.90
54832;DHT22;40730;53.068;6.572;2023-09-08T08:10:44;24.30;99.90
54832;DHT22;40730;53.068;6.572;2023-09-08T08:13:09;24.50;99.90
54832;DHT22;40730;53.068;6.572;2023-09-08T08:15:40;24.70;99.90
54832;DHT22;40730;53.068;6.572;2023-09-08T08:18:06;24.80;99.90
54832;DHT22;40730;53.068;6.572;2023-09-08T08:20:32;24.90;99.90
54832;DHT22;40730;53.068;6.572;2023-09-08T08:23:01;24.90;99.90
54832;DHT22;40730;53.068;6.572;2023-09-08T08:25:27;25.10;99.90
54832;DHT22;40730;53.068;6.572;2023-09-08T08:27:53;25.30;99.90
54832;DHT22;40730;53.068;6.572;2023-09-08T08:30:19;25.30;99.90
54832;DHT22;40730;53.068;6.572;2023-09-08T08:32:44;25.30;99.90
54832;DHT22;40730;53.068;6.572;2023-09-08T08:35:11;25.50;99.90
54832;DHT22;40730;53.068;6.572;2023-09-08T08:37:39;25.70;99.90
54832;DHT22;40730;53.068;6.572;2023-09-08T08:40:05;26.00;99.90
54832;DHT22;40730;53.068;6.572;2023-09-08T08:42:32;26.40;99.90
54832;DHT22;40730;53.068;6.572;2023-09-08T08:45:00;26.80;99.90
54832;DHT22;40730;53.068;6.572;2023-09-08T08:47:28;27.10;99.90
54832;DHT22;40730;53.068;6.572;2023-09-08T08:49:58;27.30;99.70
54832;DHT22;40730;53.068;6.572;2023-09-08T08:52:25;27.40;98.90
54832;DHT22;40730;53.068;6.572;2023-09-08T08:54:51;27.70;99.10
54832;DHT22;40730;53.068;6.572;2023-09-08T08:57:16;28.00;97.40
54832;DHT22;40730;53.068;6.572;2023-09-08T08:59:43;28.10;96.70
54832;DHT22;40730;53.068;6.572;2023-09-08T09:02:11;28.20;96.30
54832;DHT22;40730;53.068;6.572;2023-09-08T09:04:37;28.40;95.60
54832;DHT22;40730;53.068;6.572;2023-09-08T09:07:06;28.30;94.80
54832;DHT22;40730;53.068;6.572;2023-09-08T09:09:32;28.40;95.50
54832;DHT22;40730;53.068;6.572;2023-09-08T09:11:58;28.50;94.60
54832;DHT22;40730;53.068;6.572;2023-09-08T09:14:24;28.50;94.60
54832;DHT22;40730;53.068;6.572;2023-09-08T09:16:50;28.60;94.40
54832;DHT22;40730;53.068;6.572;2023-09-08T09:19:20;28.80;94.30
54832;DHT22;40730;53.068;6.572;2023-09-08T09:21:51;29.00;93.80
54832;DHT22;40730;53.068;6.572;2023-09-08T09:27:03;29.50;92.50
54832;DHT22;40730;53.068;6.572;2023-09-08T09:29:31;29.70;92.10
54832;DHT22;40730;53.068;6.572;2023-09-08T09:34:27;29.60;91.50
54832;DHT22;40730;53.068;6.572;2023-09-08T09:36:53;29.60;91.40
54832;DHT22;40730;53.068;6.572;2023-09-08T09:39:24;30.00;92.00
54832;DHT22;40730;53.068;6.572;2023-09-08T09:41:54;30.30;90.20
54832;DHT22;40730;53.068;6.572;2023-09-08T09:44:21;30.20;90.60
54832;DHT22;40730;53.068;6.572;2023-09-08T09:46:48;30.50;90.10
54832;DHT22;40730;53.068;6.572;2023-09-08T09:49:15;30.60;90.10
54832;DHT22;40730;53.068;6.572;2023-09-08T09:51:44;31.00;89.80
54832;DHT22;40730;53.068;6.572;2023-09-08T09:54:11;31.40;88.70
54832;DHT22;40730;53.068;6.572;2023-09-08T09:56:38;31.80;87.00
54832;DHT22;40730;53.068;6.572;2023-09-08T09:59:04;32.10;86.10
54832;DHT22;40730;53.068;6.572;2023-09-08T10:01:33;32.40;85.20
54832;DHT22;40730;53.068;6.572;2023-09-08T10:04:00;32.70;84.30
54832;DHT22;40730;53.068;6.572;2023-09-08T10:06:30;33.10;83.30
54832;DHT22;40730;53.068;6.572;2023-09-08T10:08:58;33.50;81.10
54832;DHT22;40730;53.068;6.572;2023-09-08T10:11:25;33.60;79.30
54832;DHT22;40730;53.068;6.572;2023-09-08T10:13:56;33.60;77.90
54832;DHT22;40730;53.068;6.572;2023-09-08T10:16:26;33.70;76.00
54832;DHT22;40730;53.068;6.572;2023-09-08T10:18:54;33.50;74.90
54832;DHT22;40730;53.068;6.572;2023-09-08T10:21:23;33.60;75.00
54832;DHT22;40730;53.068;6.572;2023-09-08T10:24:00;33.80;71.50
54832;DHT22;40730;53.068;6.572;2023-09-08T10:26:31;33.40;71.80
54832;DHT22;40730;53.068;6.572;2023-09-08T10:29:00;33.10;72.20
54832;DHT22;40730;53.068;6.572;2023-09-08T10:31:27;32.90;73.10
54832;DHT22;40730;53.068;6.572;2023-09-08T10:33:57;33.10;74.00
54832;DHT22;40730;53.068;6.572;2023-09-08T10:36:24;33.10;72.70
54832;DHT22;40730;53.068;6.572;2023-09-08T10:38:50;33.40;73.30
54832;DHT22;40730;53.068;6.572;2023-09-08T10:43:47;34.60;71.40
54832;DHT22;40730;53.068;6.572;2023-09-08T10:46:25;34.80;69.00
54832;DHT22;40730;53.068;6.572;2023-09-08T10:48:53;34.60;68.40
54832;DHT22;40730;53.068;6.572;2023-09-08T10:51:19;34.60;69.00
54832;DHT22;40730;53.068;6.572;2023-09-08T10:53:47;34.90;67.70
54832;DHT22;40730;53.068;6.572;2023-09-08T10:56:15;35.40;67.30
54832;DHT22;40730;53.068;6.572;2023-09-08T10:58:40;35.90;66.30
54832;DHT22;40730;53.068;6.572;2023-09-08T11:01:13;36.20;65.50
54832;DHT22;40730;53.068;6.572;2023-09-08T11:06:10;35.90;62.90
54832;DHT22;40730;53.068;6.572;2023-09-08T11:08:40;36.00;62.20
54832;DHT22;40730;53.068;6.572;2023-09-08T11:11:06;35.90;61.20
54832;DHT22;40730;53.068;6.572;2023-09-08T11:13:32;36.00;60.30
54832;DHT22;40730;53.068;6.572;2023-09-08T11:15:58;35.90;59.70
54832;DHT22;40730;53.068;6.572;2023-09-08T11:20:53;35.80;59.90
54832;DHT22;40730;53.068;6.572;2023-09-08T11:23:20;35.70;60.70
54832;DHT22;40730;53.068;6.572;2023-09-08T11:25:46;35.80;60.10
54832;DHT22;40730;53.068;6.572;2023-09-08T11:28:12;36.10;59.10
54832;DHT22;40730;53.068;6.572;2023-09-08T11:30:39;36.30;59.10
54832;DHT22;40730;53.068;6.572;2023-09-08T11:33:14;36.70;58.00
54832;DHT22;40730;53.068;6.572;2023-09-08T11:35:40;36.80;57.70
54832;DHT22;40730;53.068;6.572;2023-09-08T11:38:05;37.10;56.60
54832;DHT22;40730;53.068;6.572;2023-09-08T11:40:31;37.10;55.40
54832;DHT22;40730;53.068;6.572;2023-09-08T11:43:00;37.20;55.70
54832;DHT22;40730;53.068;6.572;2023-09-08T11:45:25;37.40;55.20
54832;DHT22;40730;53.068;6.572;2023-09-08T11:47:52;37.80;55.40
54832;DHT22;40730;53.068;6.572;2023-09-08T11:50:19;37.90;54.40
54832;DHT22;40730;53.068;6.572;2023-09-08T11:52:47;37.90;53.70
54832;DHT22;40730;53.068;6.572;2023-09-08T11:55:13;37.80;53.20
54832;DHT22;40730;53.068;6.572;2023-09-08T11:57:45;37.80;52.40
54832;DHT22;40730;53.068;6.572;2023-09-08T12:00:12;37.50;50.40
54832;DHT22;40730;53.068;6.572;2023-09-08T12:02:42;37.10;51.80
54832;DHT22;40730;53.068;6.572;2023-09-08T12:05:20;36.90;50.90
54832;DHT22;40730;53.068;6.572;2023-09-08T12:07:48;37.00;51.00
54832;DHT22;40730;53.068;6.572;2023-09-08T12:10:13;36.90;50.10
54832;DHT22;40730;53.068;6.572;2023-09-08T12:12:50;36.70;50.20
54832;DHT22;40730;53.068;6.572;2023-09-08T12:15:33;36.90;49.20
54832;DHT22;40730;53.068;6.572;2023-09-08T12:18:01;36.90;50.10
54832;DHT22;40730;53.068;6.572;2023-09-08T12:20:27;37.20;50.00
54832;DHT22;40730;53.068;6.572;2023-09-08T12:22:53;37.70;49.30
54832;DHT22;40730;53.068;6.572;2023-09-08T12:25:19;38.00;49.80
54832;DHT22;40730;53.068;6.572;2023-09-08T12:27:45;38.00;49.20
54832;DHT22;40730;53.068;6.572;2023-09-08T12:30:22;37.70;49.40
54832;DHT22;40730;53.068;6.572;2023-09-08T12:32:59;37.10;50.20
54832;DHT22;40730;53.068;6.572;2023-09-08T12:35:26;36.90;51.10
54832;DHT22;40730;53.068;6.572;2023-09-08T12:37:59;36.90;50.70
54832;DHT22;40730;53.068;6.572;2023-09-08T12:40:26;37.30;49.90
54832;DHT22;40730;53.068;6.572;2023-09-08T12:42:52;37.50;48.60
54832;DHT22;40730;53.068;6.572;2023-09-08T12:45:20;37.60;47.30
54832;DHT22;40730;53.068;6.572;2023-09-08T12:47:46;37.40;48.00
54832;DHT22;40730;53.068;6.572;2023-09-08T12:50:11;37.30;48.00
54832;DHT22;40730;53.068;6.572;2023-09-08T12:52:39;37.50;48.10
54832;DHT22;40730;53.068;6.572;2023-09-08T12:55:04;37.80;48.00
54832;DHT22;40730;53.068;6.572;2023-09-08T12:57:30;37.90;48.70
54832;DHT22;40730;53.068;6.572;2023-09-08T12:59:56;38.00;47.30
54832;DHT22;40730;53.068;6.572;2023-09-08T13:02:22;37.80;47.30
54832;DHT22;40730;53.068;6.572;2023-09-08T13:04:47;37.70;46.90
54832;DHT22;40730;53.068;6.572;2023-09-08T13:07:17;37.70;47.10
54832;DHT22;40730;53.068;6.572;2023-09-08T13:09:43;37.60;47.50
54832;DHT22;40730;53.068;6.572;2023-09-08T13:12:09;37.60;47.70
54832;DHT22;40730;53.068;6.572;2023-09-08T13:14:35;37.80;46.80
54832;DHT22;40730;53.068;6.572;2023-09-08T13:17:01;37.70;46.80
54832;DHT22;40730;53.068;6.572;2023-09-08T13:19:27;37.80;47.20
54832;DHT22;40730;53.068;6.572;2023-09-08T13:21:53;38.30;46.70
54832;DHT22;40730;53.068;6.572;2023-09-08T13:24:18;38.20;46.30
54832;DHT22;40730;53.068;6.572;2023-09-08T13:26:46;37.70;46.50
54832;DHT22;40730;53.068;6.572;2023-09-08T13:29:11;37.40;46.40
54832;DHT22;40730;53.068;6.572;2023-09-08T13:31:37;37.40;46.40
54832;DHT22;40730;53.068;6.572;2023-09-08T13:34:03;37.20;47.80
54832;DHT22;40730;53.068;6.572;2023-09-08T13:36:28;36.90;47.90
54832;DHT22;40730;53.068;6.572;2023-09-08T13:38:54;36.90;47.50
54832;DHT22;40730;53.068;6.572;2023-09-08T13:41:19;37.00;47.20
54832;DHT22;40730;53.068;6.572;2023-09-08T13:43:45;37.00;46.80
54832;DHT22;40730;53.068;6.572;2023-09-08T13:46:11;36.90;47.20
54832;DHT22;40730;53.068;6.572;2023-09-08T13:48:36;36.30;47.30
54832;DHT22;40730;53.068;6.572;2023-09-08T13:51:02;35.60;48.20
54832;DHT22;40730;53.068;6.572;2023-09-08T13:53:29;34.90;48.90
54832;DHT22;40730;53.068;6.572;2023-09-08T13:55:56;34.20;50.70
54832;DHT22;40730;53.068;6.572;2023-09-08T13:58:22;33.70;51.00
54832;DHT22;40730;53.068;6.572;2023-09-08T14:00:47;33.30;51.70
54832;DHT22;40730;53.068;6.572;2023-09-08T14:03:14;33.00;52.10
54832;DHT22;40730;53.068;6.572;2023-09-08T14:05:40;32.90;52.40
54832;DHT22;40730;53.068;6.572;2023-09-08T14:08:06;33.00;52.20
54832;DHT22;40730;53.068;6.572;2023-09-08T14:10:31;32.90;52.20
54832;DHT22;40730;53.068;6.572;2023-09-08T14:12:57;32.80;52.00
54832;DHT22;40730;53.068;6.572;2023-09-08T14:15:22;32.70;52.70
54832;DHT22;40730;53.068;6.572;2023-09-08T14:17:48;32.50;53.60
54832;DHT22;40730;53.068;6.572;2023-09-08T14:20:14;32.30;54.00
54832;DHT22;40730;53.068;6.572;2023-09-08T14:22:40;32.10;54.20
54832;DHT22;40730;53.068;6.572;2023-09-08T14:25:06;32.00;54.70
54832;DHT22;40730;53.068;6.572;2023-09-08T14:27:32;31.90;54.80
54832;DHT22;40730;53.068;6.572;2023-09-08T14:29:59;31.60;55.50
54832;DHT22;40730;53.068;6.572;2023-09-08T14:32:24;31.30;55.70
54832;DHT22;40730;53.068;6.572;2023-09-08T14:34:50;31.00;56.40
54832;DHT22;40730;53.068;6.572;2023-09-08T14:37:16;30.80;57.20
54832;DHT22;40730;53.068;6.572;2023-09-08T14:39:41;30.70;57.60
54832;DHT22;40730;53.068;6.572;2023-09-08T14:42:07;30.60;58.20
54832;DHT22;40730;53.068;6.572;2023-09-08T14:44:33;30.50;58.30
54832;DHT22;40730;53.068;6.572;2023-09-08T14:46:59;30.40;58.40
54832;DHT22;40730;53.068;6.572;2023-09-08T14:49:25;30.20;58.60
54832;DHT22;40730;53.068;6.572;2023-09-08T14:51:50;30.10;59.10
54832;DHT22;40730;53.068;6.572;2023-09-08T14:54:16;30.00;58.90
54832;DHT22;40730;53.068;6.572;2023-09-08T14:56:41;30.00;59.40
54832;DHT22;40730;53.068;6.572;2023-09-08T14:59:08;29.90;59.70
54832;DHT22;40730;53.068;6.572;2023-09-08T15:01:34;29.90;60.50
54832;DHT22;40730;53.068;6.572;2023-09-08T15:03:59;29.90;60.80
54832;DHT22;40730;53.068;6.572;2023-09-08T15:06:25;29.80;60.40
54832;DHT22;40730;53.068;6.572;2023-09-08T15:08:51;29.80;60.40
54832;DHT22;40730;53.068;6.572;2023-09-08T15:11:16;29.70;60.70
54832;DHT22;40730;53.068;6.572;2023-09-08T15:13:42;29.70;61.00
54832;DHT22;40730;53.068;6.572;2023-09-08T15:16:07;29.60;61.10
54832;DHT22;40730;53.068;6.572;2023-09-08T15:18:33;29.60;61.20
54832;DHT22;40730;53.068;6.572;2023-09-08T15:20:59;29.50;61.60
54832;DHT22;40730;53.068;6.572;2023-09-08T15:23:24;29.50;61.70
54832;DHT22;40730;53.068;6.572;2023-09-08T15:25:51;29.40;61.70
54832;DHT22;40730;53.068;6.572;2023-09-08T15:28:17;29.40;62.00
54832;DHT22;40730;53.068;6.572;2023-09-08T15:30:47;29.30;62.10
54832;DHT22;40730;53.068;6.572;2023-09-08T15:33:13;29.30;62.10
54832;DHT22;40730;53.068;6.572;2023-09-08T15:35:41;29.30;62.70
54832;DHT22;40730;53.068;6.572;2023-09-08T15:38:07;29.30;62.70
54832;DHT22;40730;53.068;6.572;2023-09-08T15:40:32;29.50;62.80
54832;DHT22;40730;53.068;6.572;2023-09-08T15:42:58;29.80;62.90
54832;DHT22;40730;53.068;6.572;2023-09-08T15:45:24;29.90;63.10